Time;durP1;ratioP1;P1;durP2;ratioP2;P2;SDS_P1;SDS_P2;PMS_P1;PMS_P2;Temp;Humidity;BMP_temperature;BMP_pressure;BME280_temperature;BME280_humidity;BME280_pressure;Samples;Min_cycle;Max_cycle;Signal;HPM_P1;HPM_P2
2021/12/29 00:02:18;;;;;;;161.80;40.10;;;;;;;1.26;100.00;99470.38;10004073;29;20057;-88
2021/12/29 00:07:36;;;;;;;136.00;36.90;;;;;;;-0.07;100.00;99126.22;10039479;29;20123;-89
2021/12/29 00:12:41;;;;;;;106.63;33.30;;;;;;;1.15;100.00;99485.50;10071702;29;20546;-88
2021/12/29 00:17:44;;;;;;;144.60;38.50;;;;;;;-0.52;100.00;99182.50;10071119;29;20063;-89
2021/12/29 00:22:47;;;;;;;170.73;39.17;;;;;;;1.57;100.00;99541.72;10042170;29;20064;-89
2021/12/29 00:27:52;;;;;;;121.70;36.30;;;;;;;-0.02;100.00;99212.94;10086596;29;20431;-89
2021/12/29 00:33:03;;;;;;;246.23;43.10;;;;;;;-1.15;100.00;99173.50;10087076;29;20506;-95
2021/12/29 00:38:07;;;;;;;103.88;32.88;;;;;;;-1.14;100.00;99228.31;10072932;29;20088;-95
2021/12/29 00:43:12;;;;;;;133.40;35.95;;;;;;;-0.28;100.00;99224.88;10071568;29;20047;-89
2021/12/29 00:48:14;;;;;;;188.67;39.33;;;;;;;-1.86;100.00;98967.72;10040968;29;20033;-88
2021/12/29 00:53:16;;;;;;;117.15;35.08;;;;;;;-0.96;100.00;99131.16;10086360;29;20068;-95
2021/12/29 01:03:54;;;;;;;105.85;33.78;;;;;;;4.29;100.00;99867.56;10086096;29;20088;-95
2021/12/29 01:08:57;;;;;;;171.35;37.95;;;;;;;0.02;100.00;99356.69;10042210;29;20037;-95
2021/12/29 01:14:03;;;;;;;96.70;30.92;;;;;;;0.03;100.00;99366.50;10085893;29;20036;-95
2021/12/29 01:19:21;;;;;;;;;;;;;;;;;;;;;
2021/12/29 01:24:25;;;;;;;128.98;33.75;;;;;;;4.45;100.00;100095.78;10058613;29;20041;-95
2021/12/29 01:29:26;;;;;;;114.93;34.60;;;;;;;-0.46;100.00;99252.72;10040195;29;20037;-95
2021/12/29 01:34:29;;;;;;;136.63;35.70;;;;;;;-0.12;100.00;99355.19;10085910;29;20195;-89
2021/12/29 01:39:30;;;;;;;127.60;34.42;;;;;;;-2.66;100.00;99003.25;10037402;29;20547;-89
2021/12/29 01:44:36;;;;;;;143.25;35.08;;;;;;;4.43;100.00;100097.06;10038820;29;20096;-89
2021/12/29 01:49:41;;;;;;;112.30;32.33;;;;;;;-0.94;100.00;99160.66;10053438;29;20439;-89
2021/12/29 01:54:46;;;;;;;115.07;31.88;;;;;;;0.05;100.00;99312.97;10052186;29;20089;-89
2021/12/29 01:59:47;;;;;;;110.00;32.25;;;;;;;1.76;100.00;99670.91;10051876;29;20072;-88
2021/12/29 02:04:49;;;;;;;113.30;29.70;;;;;;;2.01;100.00;99800.31;10062225;29;20124;-89
2021/12/29 02:09:58;;;;;;;75.93;26.30;;;;;;;-1.09;100.00;99237.44;10014982;29;20048;-89
2021/12/29 02:14:58;;;;;;;108.40;30.27;;;;;;;1.74;100.00;99713.72;10012839;29;20034;-89
2021/12/29 02:20:06;;;;;;;109.75;27.55;;;;;;;-0.90;100.00;99310.47;9998697;29;20034;-95
2021/12/29 02:25:21;;;;;;;107.88;27.33;;;;;;;-2.12;100.00;98962.53;10030878;29;20052;-94
2021/12/29 02:30:33;;;;;;;89.88;25.65;;;;;;;-1.76;100.00;99052.69;10034349;29;20043;-95
2021/12/29 02:35:33;;;;;;;106.50;25.17;;;;;;;0.25;100.00;99409.38;10000385;29;20091;-95
2021/12/29 02:40:43;;;;;;;157.07;32.80;;;;;;;0.76;100.00;99467.81;10029910;29;20033;-96
2021/12/29 02:45:50;;;;;;;141.75;30.52;;;;;;;0.70;100.00;99490.38;10000871;29;20116;-95
2021/12/29 02:50:55;;;;;;;137.50;29.83;;;;;;;-1.44;100.00;99256.75;10044103;29;20064;-95
2021/12/29 03:01:31;;;;;;;119.95;26.42;;;;;;;0.83;100.00;99452.31;10068481;29;20057;-89
2021/12/29 03:07:05;;;;;;;126.65;26.58;;;;;;;4.73;100.00;100023.38;10050420;29;20494;-90
2021/12/29 03:12:39;;;;;;;141.38;28.23;;;;;;;-0.82;100.00;99161.59;10054817;29;20045;-89
2021/12/29 03:18:03;;;;;;;149.82;28.40;;;;;;;-0.44;100.00;99282.22;10067203;29;20049;-90
2021/12/29 03:23:06;;;;;;;173.93;28.40;;;;;;;-0.51;100.00;99324.72;10064496;29;20049;-89
2021/12/29 03:28:46;;;;;;;;;;;;;;;;;;;;;
2021/12/29 03:34:24;;;;;;;201.77;35.53;;;;;;;1.05;100.00;99522.31;10068811;29;20037;-89
2021/12/29 03:39:35;;;;;;;186.32;37.92;;;;;;;-0.03;100.00;99386.31;10065230;29;20037;-89
2021/12/29 03:45:29;;;;;;;154.15;30.67;;;;;;;0.26;100.00;99340.66;10067790;29;20052;-95
2021/12/29 03:50:52;;;;;;;150.05;29.73;;;;;;;-0.58;100.00;99275.28;10057421;29;20371;-95
2021/12/29 03:56:07;;;;;;;120.45;26.30;;;;;;;0.55;100.00;99524.06;10070254;29;20037;-96
2021/12/29 04:01:10;;;;;;;;;;;;;;;5.10;100.00;100107.72;10073055;29;20076;-96
2021/12/29 04:06:29;;;;;;;;;;;;;;;;;;;;;
2021/12/29 04:11:34;;;;;;;149.25;29.45;;;;;;;1.28;100.00;99614.69;10067200;29;20032;-96
2021/12/29 04:17:06;;;;;;;;;;;;;;;;;;;;;
2021/12/29 04:22:20;;;;;;;128.77;27.63;;;;;;;0.67;100.00;99432.06;10067787;29;20493;-96
2021/12/29 04:27:23;;;;;;;135.55;26.20;;;;;;;-0.23;100.00;99476.59;10050293;29;20398;-96
2021/12/29 04:32:39;;;;;;;;;;;;;;;;;;;;;
2021/12/29 04:37:55;;;;;;;138.60;28.15;;;;;;;2.85;100.00;99826.91;10073354;29;20049;-95
2021/12/29 04:43:08;;;;;;;122.45;25.20;;;;;;;2.42;100.00;99853.13;10073483;29;20048;-96
2021/12/29 04:48:38;;;;;;;;;;;;;;;;;;;;;
2021/12/29 04:54:00;;;;;;;;;;;;;;;;;;;;;
2021/12/29 04:59:20;;;;;;;;;;;;;;;;;;;;;
2021/12/29 05:05:00;;;;;;;182.00;32.83;;;;;;;1.15;100.00;99625.66;10051406;29;20061;-89
2021/12/29 05:10:06;;;;;;;195.23;35.40;;;;;;;3.73;100.00;100021.41;10040651;29;20076;-89
2021/12/29 05:15:16;;;;;;;222.43;37.20;;;;;;;4.61;100.00;100240.66;10070090;29;20418;-89
2021/12/29 05:20:23;;;;;;;217.77;39.92;;;;;;;3.87;100.00;100109.19;10056607;29;20044;-96
2021/12/29 05:25:28;;;;;;;222.82;39.00;;;;;;;1.10;100.00;99652.59;10086814;29;20036;-96
2021/12/29 05:30:35;;;;;;;229.20;43.42;;;;;;;0.10;100.00;99556.66;10055469;29;20045;-95
2021/12/29 05:35:46;;;;;;;279.77;44.70;;;;;;;1.53;100.00;99678.88;10070066;29;20044;-96
2021/12/29 05:41:00;;;;;;;224.05;44.17;;;;;;;0.22;100.00;99561.41;10086279;29;20451;-95
2021/12/29 05:46:32;;;;;;;263.92;46.08;;;;;;;-0.82;100.00;99264.25;10073882;29;20064;-90
2021/12/29 05:51:56;;;;;;;254.68;46.30;;;;;;;0.18;100.00;99518.53;10083006;29;20177;-90
2021/12/29 05:57:13;;;;;;;334.75;53.78;;;;;;;2.21;100.00;99934.00;10043136;29;20486;-89
2021/12/29 06:02:16;;;;;;;184.80;37.97;;;;;;;-0.45;100.00;99532.03;10082182;29;20088;-95
2021/12/29 06:08:00;;;;;;;;;;;;;;;;;;;;;
2021/12/29 06:14:19;;;;;;;274.73;51.40;;;;;;;0.51;100.00;99555.34;9948142;29;20513;-95
2021/12/29 06:19:55;;;;;;;;;;;;;;;;;;;;;
2021/12/29 06:37:18;;;;;;;;;;;;;;;;;;;;;
2021/12/29 07:02:19;;;;;;;;;;;;;;;;;;;;;
2021/12/29 07:08:00;;;;;;;;;;;;;;;;;;;;;
2021/12/29 07:13:45;;;;;;;;;;;;;;;;;;;;;
2021/12/29 07:18:54;;;;;;;250.25;48.67;;;;;;;-1.28;100.00;99484.09;9956611;29;20140;-95
2021/12/29 07:24:25;;;;;;;200.65;47.33;;;;;;;0.05;100.00;99513.22;9944376;29;20061;-96
2021/12/29 07:30:17;;;;;;;;;;;;;;;;;;;;;
2021/12/29 07:36:18;;;;;;;;;;;;;;;;;;;;;
2021/12/29 07:41:54;;;;;;;;;;;;;;;;;;;;;
2021/12/29 07:47:46;;;;;;;;;;;;;;;;;;;;;
2021/12/29 07:54:06;;;;;;;;;;;;;;;;;;;;;
2021/12/29 07:59:42;;;;;;;;;;;;;;;;;;;;;
2021/12/29 08:05:22;;;;;;;;;;;;;;;;;;;;;
2021/12/29 08:11:22;;;;;;;;;;;;;;;;;;;;;
2021/12/29 08:17:36;;;;;;;;;;;;;;;;;;;;;
2021/12/29 08:23:20;;;;;;;335.60;57.20;;;;;;;5.56;100.00;100630.31;9990283;29;20062;-96
2021/12/29 08:29:20;;;;;;;;;;;;;;;;;;;;;
2021/12/29 08:34:54;;;;;;;;;;;;;;;;;;;;;
2021/12/29 08:40:07;;;;;;;423.90;59.38;;;;;;;0.63;100.00;99798.41;10087651;29;20414;-95
2021/12/29 08:45:29;;;;;;;358.75;56.55;;;;;;;1.19;100.00;99968.47;10071130;29;20037;-89
2021/12/29 08:51:00;;;;;;;362.70;54.20;;;;;;;0.46;100.00;99660.78;10062837;29;20396;-94
2021/12/29 08:56:14;;;;;;;;;;;;;;;;;;;;;
2021/12/29 09:01:35;;;;;;;325.95;56.58;;;;;;;1.49;100.00;99879.22;10071899;29;20053;-90
2021/12/29 09:06:39;;;;;;;361.80;60.08;;;;;;;4.18;100.00;100372.41;10067910;29;20057;-89
2021/12/29 09:12:02;;;;;;;315.98;54.38;;;;;;;1.92;100.00;100113.78;10061413;29;20453;-95
2021/12/29 09:17:06;;;;;;;239.05;48.33;;;;;;;2.02;100.00;100141.31;10069307;29;20033;-95
2021/12/29 09:22:20;;;;;;;306.95;54.70;;;;;;;0.99;100.00;99863.69;10071073;29;20040;-95
2021/12/29 09:28:19;;;;;;;267.23;52.53;;;;;;;5.76;100.00;100526.25;10073104;29;20045;-95
2021/12/29 09:33:24;;;;;;;272.08;51.78;;;;;;;0.03;100.00;99847.31;10086640;29;20550;-95
2021/12/29 09:38:28;;;;;;;247.00;46.83;;;;;;;4.59;100.00;100469.09;10070604;29;20041;-95
2021/12/29 09:43:46;;;;;;;;;;;;;;;;;;;;;
2021/12/29 09:49:02;;;;;;;233.02;44.15;;;;;;;2.11;100.00;100050.41;10071353;29;20172;-95
2021/12/29 09:54:15;;;;;;;214.27;42.28;;;;;;;2.33;100.00;100052.75;10069131;29;20084;-95
2021/12/29 09:59:28;;;;;;;198.98;40.42;;;;;;;2.17;100.00;100011.53;10068451;29;20056;-94
2021/12/29 10:05:28;;;;;;;;;;;;;;;;;;;;;
2021/12/29 10:10:52;;;;;;;169.98;34.17;;;;;;;3.37;100.00;100127.34;10019552;29;20487;-89
2021/12/29 10:16:07;;;;;;;163.25;32.70;;;;;;;2.38;100.00;100071.97;10032143;29;20442;-95
2021/12/29 10:21:29;;;;;;;;;;;;;;;;;;;;;
2021/12/29 10:27:06;;;;;;;171.70;34.53;;;;;;;4.41;100.00;100367.13;10059532;29;20133;-92
2021/12/29 10:32:26;;;;;;;163.15;33.33;;;;;;;0.64;100.00;99741.31;10045659;29;20470;-90
2021/12/29 10:37:30;;;;;;;192.90;36.60;;;;;;;2.71;100.00;100194.00;10030904;29;20037;-89
2021/12/29 10:42:57;;;;;;;200.68;36.58;;;;;;;2.34;100.00;100157.66;10064788;29;20040;-92
2021/12/29 10:48:28;;;;;;;232.73;36.22;;;;;;;0.67;100.00;99688.56;10056075;29;20144;-91
2021/12/29 10:53:41;;;;;;;167.55;31.13;;;;;;;0.55;100.00;99762.38;10051798;29;20136;-90
2021/12/29 10:59:18;;;;;;;149.43;29.67;;;;;;;2.98;100.00;99939.03;10075552;29;20064;-89
2021/12/29 11:04:24;;;;;;;135.10;28.17;;;;;;;1.97;100.00;99975.53;10022530;29;20110;-87
2021/12/29 11:10:10;;;;;;;134.57;28.38;;;;;;;1.29;100.00;99732.09;10032141;29;20040;-89
2021/12/29 11:15:41;;;;;;;149.50;30.45;;;;;;;0.22;100.00;99615.53;10039494;29;20034;-90
2021/12/29 11:20:48;;;;;;;124.20;28.67;;;;;;;3.08;100.00;100138.91;10027369;29;20244;-95
2021/12/29 11:26:00;;;;;;;125.10;27.38;;;;;;;4.12;100.00;100269.78;10015752;29;20046;-93
2021/12/29 11:31:14;;;;;;;105.00;24.13;;;;;;;1.06;100.00;99740.84;10010245;29;20017;-90
2021/12/29 11:36:43;;;;;;;88.57;22.30;;;;;;;2.27;100.00;100094.38;10037689;29;20085;-89
2021/12/29 11:41:59;;;;;;;95.55;21.95;;;;;;;4.94;100.00;100427.56;10013003;29;20402;-92
2021/12/29 11:46:59;;;;;;;105.95;24.02;;;;;;;3.83;100.00;100196.75;10049444;29;20180;-86
2021/12/29 11:52:16;;;;;;;79.25;20.02;;;;;;;6.73;100.00;100579.09;10056213;29;20030;-89
2021/12/29 11:57:21;;;;;;;77.22;18.73;;;;;;;1.78;100.00;99961.88;10060583;29;20492;-94
2021/12/29 12:02:31;;;;;;;80.03;19.95;;;;;;;2.05;100.00;99891.09;10077369;29;20045;-95
2021/12/29 12:07:37;;;;;;;71.53;21.02;;;;;;;5.43;100.00;100605.88;10076111;29;20069;-89
2021/12/29 12:12:58;;;;;;;73.25;22.23;;;;;;;2.56;100.00;99963.34;10034463;29;20037;-92
2021/12/29 12:18:19;;;;;;;87.60;21.73;;;;;;;2.53;100.00;100077.88;10071640;29;20068;-90
2021/12/29 12:23:42;;;;;;;;;;;;;;;;;;;;;
2021/12/29 12:28:53;;;;;;;70.05;18.35;;;;;;;4.04;100.00;100186.47;10060720;29;20040;-89
2021/12/29 12:34:10;;;;;;;86.07;25.58;;;;;;;4.87;100.00;100340.38;10047311;29;20045;-94
2021/12/29 12:39:13;;;;;;;71.82;19.42;;;;;;;3.03;100.00;99979.13;10039981;29;20038;-94
2021/12/29 12:44:22;;;;;;;61.15;18.10;;;;;;;3.06;100.00;100144.59;10017637;29;20140;-90
2021/12/29 12:49:37;;;;;;;75.10;20.85;;;;;;;5.36;100.00;100461.28;10035765;29;20054;-93
2021/12/29 12:54:47;;;;;;;73.22;19.73;;;;;;;0.53;100.00;99806.97;10054305;29;20063;-87
2021/12/29 13:00:03;;;;;;;75.68;21.27;;;;;;;1.65;100.00;99913.13;10015994;29;20128;-94
2021/12/29 13:05:23;;;;;;;81.13;20.83;;;;;;;1.28;100.00;99728.56;10007811;29;20140;-93
2021/12/29 13:10:28;;;;;;;84.20;21.52;;;;;;;3.09;100.00;100102.50;10046253;29;20045;-88
2021/12/29 13:15:34;;;;;;;71.57;20.85;;;;;;;4.64;100.00;100366.44;10060938;29;20108;-89
2021/12/29 13:20:41;;;;;;;71.78;20.92;;;;;;;3.10;100.00;100007.09;10047957;29;20037;-93
2021/12/29 13:25:55;;;;;;;81.75;21.65;;;;;;;2.86;100.00;100078.69;10042650;29;20049;-88
2021/12/29 13:31:05;;;;;;;73.20;20.80;;;;;;;1.77;100.00;99921.38;10030683;29;20033;-92
2021/12/29 13:36:16;;;;;;;76.13;20.77;;;;;;;4.22;100.00;100341.75;10045748;29;20086;-88
2021/12/29 13:41:20;;;;;;;;;;;;;;;6.56;100.00;100502.38;10031644;29;20030;-94
2021/12/29 13:46:24;;;;;;;72.00;22.00;;;;;;;-0.17;100.00;99644.44;10043692;29;19919;-87
2021/12/29 13:51:42;;;;;;;82.10;21.20;;;;;;;-0.06;100.00;99495.00;10025624;29;20057;-89
2021/12/29 13:57:06;;;;;;;74.75;21.80;;;;;;;0.94;100.00;99771.34;10037627;29;20043;-88
2021/12/29 14:02:09;;;;;;;80.93;20.63;;;;;;;1.35;100.00;99878.47;10047731;29;20084;-93
2021/12/29 14:07:15;;;;;;;92.43;23.50;;;;;;;1.29;100.00;99745.66;10069365;29;20045;-93
2021/12/29 14:12:16;;;;;;;90.00;23.63;;;;;;;2.54;100.00;100033.38;10039292;29;20041;-94
2021/12/29 14:17:21;;;;;;;88.55;24.10;;;;;;;5.08;100.00;100463.72;10068108;29;20443;-87
2021/12/29 14:22:26;;;;;;;80.63;24.10;;;;;;;1.28;100.00;99822.63;10083737;29;20033;-94
2021/12/29 14:27:31;;;;;;;81.90;23.27;;;;;;;1.96;100.00;99898.69;10067238;29;20041;-89
2021/12/29 14:32:34;;;;;;;88.68;23.60;;;;;;;2.45;100.00;99939.59;10037510;29;20039;-95
2021/12/29 14:37:41;;;;;;;80.25;23.42;;;;;;;0.15;100.00;99605.56;10103828;23;20072;-88
2021/12/29 14:42:51;;;;;;;125.05;33.42;;;;;;;2.35;100.00;99955.59;10073998;29;20044;-88
2021/12/29 14:47:56;;;;;;;87.65;25.30;;;;;;;2.15;100.00;99975.59;10076539;29;20421;-94
2021/12/29 14:53:05;;;;;;;84.70;25.55;;;;;;;2.35;100.00;100091.41;10075841;29;20024;-88
2021/12/29 14:58:16;;;;;;;;;;;;;;;5.82;100.00;100467.97;10083193;29;20172;-94
2021/12/29 15:03:17;;;;;;;81.97;26.10;;;;;;;1.49;100.00;99843.97;10072556;29;20284;-88
2021/12/29 15:08:23;;;;;;;95.05;28.58;;;;;;;3.66;100.00;100309.19;10079406;29;20045;-88
2021/12/29 15:13:40;;;;;;;90.32;27.35;;;;;;;5.72;100.00;100437.66;10071037;29;20112;-88
2021/12/29 15:18:44;;;;;;;89.72;29.88;;;;;;;2.91;100.00;100155.78;10106083;29;20044;-88
2021/12/29 15:23:45;;;;;;;114.30;31.63;;;;;;;0.11;100.00;99685.53;10071523;29;20032;-89
2021/12/29 15:28:46;;;;;;;117.47;36.10;;;;;;;1.09;100.00;99772.91;10047200;29;20037;-88
2021/12/29 15:33:51;;;;;;;115.78;34.60;;;;;;;2.53;100.00;100026.25;10066390;29;20036;-88
2021/12/29 15:38:52;;;;;;;109.72;35.13;;;;;;;1.48;100.00;99855.84;10042208;29;20498;-87
2021/12/29 15:44:08;;;;;;;116.72;34.67;;;;;;;1.65;100.00;99799.16;10053282;29;20062;-89
2021/12/29 15:49:18;;;;;;;121.32;35.00;;;;;;;0.72;100.00;99637.25;10031301;29;20037;-90
2021/12/29 15:54:21;;;;;;;114.00;34.35;;;;;;;3.95;100.00;100261.34;10037578;29;20040;-94
2021/12/29 15:59:26;;;;;;;119.38;36.28;;;;;;;1.64;100.00;99957.59;10048292;29;20494;-89
2021/12/29 16:05:23;;;;;;;;;;;;;;;;;;;;;
2021/12/29 16:11:12;;;;;;;;;;;;;;;;;;;;;
2021/12/29 16:17:02;;;;;;;132.30;38.53;;;;;;;2.87;100.00;99991.44;10029246;29;20469;-96
2021/12/29 16:22:13;;;;;;;114.63;36.08;;;;;;;2.29;100.00;100008.06;10014736;29;20046;-87
2021/12/29 16:27:21;;;;;;;125.20;38.70;;;;;;;4.12;100.00;100237.09;10028406;29;20418;-87
2021/12/29 16:32:22;;;;;;;116.72;38.53;;;;;;;2.40;100.00;99849.81;10077286;29;20069;-94
2021/12/29 16:37:24;;;;;;;116.88;38.17;;;;;;;2.97;100.00;100099.69;10065537;29;20080;-87
2021/12/29 16:42:25;;;;;;;145.50;43.92;;;;;;;-0.78;100.00;99540.28;10044370;29;20041;-87
2021/12/29 16:47:29;;;;;;;148.60;41.47;;;;;;;0.32;100.00;99597.75;10022455;29;20030;-89
2021/12/29 16:52:32;;;;;;;137.05;41.78;;;;;;;-0.13;100.00;99472.56;10050783;29;20033;-94
2021/12/29 16:57:37;;;;;;;147.75;45.78;;;;;;;2.84;100.00;99994.63;10029782;29;20037;-95
2021/12/29 17:08:57;;;;;;;165.05;45.35;;;;;;;1.51;100.00;99759.63;9949987;29;20059;-94
2021/12/29 17:14:33;;;;;;;;;;;;;;;;;;;;;
2021/12/29 17:19:57;;;;;;;179.48;48.25;;;;;;;-0.81;100.00;99446.94;9922993;29;20039;-94
2021/12/29 17:25:57;;;;;;;;;;;;;;;;;;;;;
2021/12/29 17:31:34;;;;;;;165.73;50.17;;;;;;;1.02;100.00;99637.44;9915499;29;20035;-94
2021/12/29 17:37:07;;;;;;;150.15;46.92;;;;;;;1.71;100.00;99703.31;9962708;29;20045;-94
2021/12/29 17:42:46;;;;;;;157.50;46.08;;;;;;;0.36;100.00;99579.22;10076454;29;20154;-94
2021/12/29 17:48:13;;;;;;;;;;;;;;;;;;;;;
2021/12/29 17:54:12;;;;;;;163.55;51.92;;;;;;;4.70;100.00;100074.84;10087072;29;20045;-95
2021/12/29 17:59:39;;;;;;;131.52;44.15;;;;;;;4.71;100.00;100114.66;10062332;29;20551;-95
2021/12/29 18:04:57;;;;;;;144.75;46.55;;;;;;;0.17;100.00;99535.00;10068013;29;20032;-95
2021/12/29 18:10:06;;;;;;;148.07;48.47;;;;;;;2.42;100.00;99794.19;10069764;29;20342;-94
2021/12/29 18:15:27;;;;;;;147.23;49.10;;;;;;;5.61;100.00;100389.31;10085739;29;20041;-93
2021/12/29 18:20:37;;;;;;;154.15;48.70;;;;;;;3.13;100.00;99902.47;10084022;29;20049;-93
2021/12/29 18:25:56;;;;;;;;;;;;;;;;;;;;;
2021/12/29 18:31:26;;;;;;;147.80;48.72;;;;;;;1.81;100.00;99748.91;10071577;29;20048;-94
2021/12/29 18:36:40;;;;;;;;;;;;;;;;;;;;;
2021/12/29 18:41:56;;;;;;;;;;;;;;;;;;;;;
2021/12/29 18:47:31;;;;;;;;;;;;;;;;;;;;;
2021/12/29 18:53:45;;;;;;;;;;;;;;;;;;;;;
2021/12/29 18:59:09;;;;;;;126.60;44.72;;;;;;;2.32;100.00;99630.13;9943018;29;20373;-94
2021/12/29 19:04:28;;;;;;;;;;;;;;;;;;;;;
2021/12/29 19:09:51;;;;;;;119.80;44.22;;;;;;;2.19;100.00;99631.09;9953684;29;20047;-95
2021/12/29 19:15:02;;;;;;;125.82;44.92;;;;;;;0.80;100.00;99422.97;9951170;29;20038;-95
2021/12/29 19:20:18;;;;;;;103.88;39.65;;;;;;;4.03;100.00;100075.84;9955093;29;20117;-92
2021/12/29 19:25:31;;;;;;;;;;;;;;;;;;;;;
2021/12/29 19:30:36;;;;;;;107.82;40.78;;;;;;;1.49;100.00;99705.63;9951656;29;20448;-95
2021/12/29 19:35:37;;;;;;;94.70;36.97;;;;;;;1.20;100.00;99591.41;10021145;29;20129;-95
2021/12/29 19:40:51;;;;;;;;;;;;;;;;;;;;;
2021/12/29 19:46:22;;;;;;;76.40;31.80;;;;;;;5.46;100.00;100247.78;10029847;29;20045;-94
2021/12/29 19:52:13;;;;;;;;;;;;;;;;;;;;;
2021/12/29 19:57:41;;;;;;;87.35;32.05;;;;;;;2.02;100.00;99701.50;10026672;29;20041;-93
2021/12/29 20:02:51;;;;;;;80.75;30.42;;;;;;;3.50;100.00;99984.84;10017562;29;20093;-93
2021/12/29 20:08:02;;;;;;;87.63;32.10;;;;;;;1.73;100.00;99636.06;10033306;29;20066;-93
2021/12/29 20:13:05;;;;;;;88.13;31.02;;;;;;;1.98;100.00;99733.69;10030647;29;20112;-94
2021/12/29 20:18:06;;;;;;;68.85;26.88;;;;;;;5.92;100.00;100265.22;10030460;29;20025;-93
2021/12/29 20:23:13;;;;;;;81.68;29.85;;;;;;;7.19;100.00;100528.16;10057805;29;20041;-93
2021/12/29 20:28:54;;;;;;;86.63;30.08;;;;;;;2.44;100.00;99720.63;10058357;29;20085;-92
2021/12/29 20:34:11;;;;;;;90.85;33.80;;;;;;;2.61;100.00;99775.97;10050412;29;20447;-92
2021/12/29 20:39:32;;;;;;;;;;;;;;;;;;;;;
2021/12/29 20:44:38;;;;;;;105.63;33.55;;;;;;;1.41;100.00;99430.13;10038005;29;20063;-90
2021/12/29 20:49:59;;;;;;;94.53;32.38;;;;;;;4.04;100.00;99840.56;10044857;29;20047;-90
2021/12/29 20:55:06;;;;;;;98.18;34.67;;;;;;;6.12;100.00;100155.56;10032819;29;20109;-90
2021/12/29 21:00:13;;;;;;;109.07;34.90;;;;;;;3.56;100.00;99847.03;10049059;29;20050;-90
2021/12/29 21:05:13;;;;;;;99.78;36.28;;;;;;;4.64;100.00;99934.84;10058559;29;20033;-91
2021/12/29 21:10:40;;;;;;;105.40;36.53;;;;;;;3.37;100.00;99776.34;10061580;29;20044;-91
2021/12/29 21:15:58;;;;;;;;;;;;;;;;;;;;;
2021/12/29 21:21:55;;;;;;;;;;;;;;;;;;;;;
2021/12/29 21:28:08;;;;;;;;;;;;;;;;;;;;;
2021/12/29 21:33:20;;;;;;;74.10;24.80;;;;;;;5.41;100.00;100234.81;10083802;29;20497;-91
2021/12/29 21:38:44;;;;;;;71.97;23.90;;;;;;;3.19;100.00;99874.34;10038747;29;20410;-91
2021/12/29 21:44:28;;;;;;;51.55;17.75;;;;;;;5.48;100.00;100090.03;10074203;29;20041;-92
2021/12/29 21:49:59;;;;;;;49.58;15.48;;;;;;;3.74;100.00;99968.59;10070505;29;20037;-93
2021/12/29 21:55:00;;;;;;;46.40;13.48;;;;;;;4.87;100.00;100097.63;10053795;29;20394;-91
2021/12/29 22:00:08;;;;;;;75.28;16.55;;;;;;;1.81;100.00;99660.19;10085094;29;20048;-90
2021/12/29 22:05:12;;;;;;;51.35;12.30;;;;;;;2.96;100.00;99946.59;10055906;29;20033;-91
2021/12/29 22:10:20;;;;;;;41.05;12.48;;;;;;;7.79;100.00;100607.25;10056325;29;20033;-92
2021/12/29 22:15:23;;;;;;;42.85;10.02;;;;;;;1.63;100.00;99733.44;10068470;29;20062;-91
2021/12/29 22:20:36;;;;;;;46.10;10.63;;;;;;;6.57;100.00;100584.19;10057720;29;20109;-92
2021/12/29 22:25:38;;;;;;;46.13;10.48;;;;;;;4.72;100.00;100171.72;10054611;29;20041;-92
2021/12/29 22:31:00;;;;;;;52.25;15.13;;;;;;;2.17;100.00;99878.47;10029761;29;20042;-92
2021/12/29 22:36:41;;;;;;;;;;;;;;;;;;;;;
2021/12/29 22:42:05;;;;;;;52.50;11.85;;;;;;;1.39;100.00;99773.94;10047248;29;20077;-91
2021/12/29 22:47:29;;;;;;;;;;;;;;;;;;;;;
2021/12/29 22:53:18;;;;;;;48.88;13.68;;;;;;;1.49;100.00;99691.22;10030551;29;20499;-93
2021/12/29 22:59:15;;;;;;;;;;;;;;;;;;;;;
2021/12/29 23:05:17;;;;;;;;;;;;;;;;;;;;;
2021/12/29 23:10:49;;;;;;;;;;;;;;;;;;;;;
2021/12/29 23:16:13;;;;;;;;;;;;;;;;;;;;;
2021/12/29 23:22:00;;;;;;;53.50;11.07;;;;;;;4.22;100.00;100385.34;10058082;29;20041;-93
2021/12/29 23:33:10;;;;;;;47.15;10.05;;;;;;;4.50;100.00;100381.28;9966737;29;20086;-91
2021/12/29 23:39:19;;;;;;;;;;;;;;;;;;;;;
2021/12/29 23:45:11;;;;;;;;;;;;;;;;;;;;;
2021/12/29 23:50:50;;;;;;;;;;;;;;;;;;;;;
2021/12/29 23:56:27;;;;;;;;;;;;;;;;;;;;;
